sensor_id;sensor_type;location;lat;lon;timestamp;P1;durP1;ratioP1;P2;durP2;ratioP2
5569;SDS011;2808;51.240;6.794;2023-07-29T00:35:49;8.03;;;3.00;;
5569;SDS011;2808;51.240;6.794;2023-07-29T00:38:33;4.83;;;2.53;;
5569;SDS011;2808;51.240;6.794;2023-07-29T01:53:10;10.37;;;4.27;;
5569;SDS011;2808;51.240;6.794;2023-07-29T01:55:38;8.33;;;4.50;;
5569;SDS011;2808;51.240;6.794;2023-07-29T02:00:47;11.93;;;4.33;;
5569;SDS011;2808;51.240;6.794;2023-07-29T02:02:02;6.60;;;4.43;;
5569;SDS011;2808;51.240;6.794;2023-07-29T02:05:19;7.83;;;4.20;;
5569;SDS011;2808;51.240;6.794;2023-07-29T02:08:09;9.33;;;4.50;;
5569;SDS011;2808;51.240;6.794;2023-07-29T02:10:47;7.20;;;3.97;;
5569;SDS011;2808;51.240;6.794;2023-07-29T02:13:15;11.97;;;4.20;;
5569;SDS011;2808;51.240;6.794;2023-07-29T02:15:53;13.37;;;4.53;;
5569;SDS011;2808;51.240;6.794;2023-07-29T02:18:47;6.00;;;4.30;;
5569;SDS011;2808;51.240;6.794;2023-07-29T02:21:42;10.63;;;4.13;;
5569;SDS011;2808;51.240;6.794;2023-07-29T02:27:26;8.13;;;3.63;;
5569;SDS011;2808;51.240;6.794;2023-07-29T02:30:03;8.37;;;4.30;;
5569;SDS011;2808;51.240;6.794;2023-07-29T02:32:52;6.60;;;3.90;;
5569;SDS011;2808;51.240;6.794;2023-07-29T02:35:38;7.60;;;3.93;;
5569;SDS011;2808;51.240;6.794;2023-07-29T02:38:13;8.00;;;3.90;;
5569;SDS011;2808;51.240;6.794;2023-07-29T02:40:48;8.00;;;4.20;;
5569;SDS011;2808;51.240;6.794;2023-07-29T02:43:16;10.10;;;4.33;;
5569;SDS011;2808;51.240;6.794;2023-07-29T02:45:47;7.50;;;4.07;;
5569;SDS011;2808;51.240;6.794;2023-07-29T02:48:26;7.77;;;3.90;;
5569;SDS011;2808;51.240;6.794;2023-07-29T02:51:03;6.13;;;3.80;;
5569;SDS011;2808;51.240;6.794;2023-07-29T02:53:46;5.13;;;3.20;;
5569;SDS011;2808;51.240;6.794;2023-07-29T02:56:21;5.77;;;3.40;;
5569;SDS011;2808;51.240;6.794;2023-07-29T02:58:56;6.53;;;3.00;;
5569;SDS011;2808;51.240;6.794;2023-07-29T03:01:39;8.50;;;3.67;;
5569;SDS011;2808;51.240;6.794;2023-07-29T03:04:17;6.37;;;3.27;;
5569;SDS011;2808;51.240;6.794;2023-07-29T03:06:48;6.63;;;3.30;;
5569;SDS011;2808;51.240;6.794;2023-07-29T03:09:21;7.37;;;3.03;;
5569;SDS011;2808;51.240;6.794;2023-07-29T03:12:06;5.97;;;3.20;;
5569;SDS011;2808;51.240;6.794;2023-07-29T03:14:44;7.20;;;2.80;;
5569;SDS011;2808;51.240;6.794;2023-07-29T03:17:24;6.20;;;3.00;;
5569;SDS011;2808;51.240;6.794;2023-07-29T03:20:07;4.80;;;3.00;;
5569;SDS011;2808;51.240;6.794;2023-07-29T03:22:47;4.60;;;3.00;;
5569;SDS011;2808;51.240;6.794;2023-07-29T03:25:23;14.90;;;2.83;;
5569;SDS011;2808;51.240;6.794;2023-07-29T03:28:18;5.27;;;2.53;;
5569;SDS011;2808;51.240;6.794;2023-07-29T03:30:53;5.20;;;2.53;;
5569;SDS011;2808;51.240;6.794;2023-07-29T03:33:21;5.57;;;2.50;;
5569;SDS011;2808;51.240;6.794;2023-07-29T03:36:01;9.63;;;3.30;;
5569;SDS011;2808;51.240;6.794;2023-07-29T03:38:45;5.00;;;2.53;;
5569;SDS011;2808;51.240;6.794;2023-07-29T03:45:06;5.93;;;2.70;;
5569;SDS011;2808;51.240;6.794;2023-07-29T03:48:09;6.47;;;2.87;;
5569;SDS011;2808;51.240;6.794;2023-07-29T03:51:08;6.10;;;2.93;;
5569;SDS011;2808;51.240;6.794;2023-07-29T03:53:45;12.73;;;3.00;;
5569;SDS011;2808;51.240;6.794;2023-07-29T03:56:42;10.00;;;3.10;;
5569;SDS011;2808;51.240;6.794;2023-07-29T04:00:10;6.80;;;3.30;;
5569;SDS011;2808;51.240;6.794;2023-07-29T04:02:48;6.83;;;2.90;;
5569;SDS011;2808;51.240;6.794;2023-07-29T04:05:22;10.30;;;3.50;;
5569;SDS011;2808;51.240;6.794;2023-07-29T04:07:58;8.80;;;3.20;;
5569;SDS011;2808;51.240;6.794;2023-07-29T04:10:35;5.70;;;3.20;;
5569;SDS011;2808;51.240;6.794;2023-07-29T04:13:21;5.20;;;4.00;;
5569;SDS011;2808;51.240;6.794;2023-07-29T04:20:10;7.00;;;3.50;;
5569;SDS011;2808;51.240;6.794;2023-07-29T04:22:44;7.73;;;4.20;;
5569;SDS011;2808;51.240;6.794;2023-07-29T04:25:18;10.70;;;4.57;;
5569;SDS011;2808;51.240;6.794;2023-07-29T04:28:12;11.20;;;3.77;;
5569;SDS011;2808;51.240;6.794;2023-07-29T04:30:42;9.20;;;3.47;;
5569;SDS011;2808;51.240;6.794;2023-07-29T04:33:17;10.77;;;3.70;;
5569;SDS011;2808;51.240;6.794;2023-07-29T04:45:59;20.47;;;8.90;;
5569;SDS011;2808;51.240;6.794;2023-07-29T04:48:49;12.90;;;8.50;;
5569;SDS011;2808;51.240;6.794;2023-07-29T04:51:16;17.37;;;10.67;;
5569;SDS011;2808;51.240;6.794;2023-07-29T04:53:53;9.60;;;5.53;;
5569;SDS011;2808;51.240;6.794;2023-07-29T04:56:50;8.00;;;4.60;;
5569;SDS011;2808;51.240;6.794;2023-07-29T05:02:55;6.40;;;3.67;;
5569;SDS011;2808;51.240;6.794;2023-07-29T07:37:23;8.43;;;4.93;;
5569;SDS011;2808;51.240;6.794;2023-07-29T07:43:56;4.80;;;1.80;;
5569;SDS011;2808;51.240;6.794;2023-07-29T07:47:01;7.17;;;1.87;;
5569;SDS011;2808;51.240;6.794;2023-07-29T07:49:44;4.10;;;1.80;;
5569;SDS011;2808;51.240;6.794;2023-07-29T07:52:41;6.63;;;2.30;;
5569;SDS011;2808;51.240;6.794;2023-07-29T07:55:40;8.43;;;1.90;;
5569;SDS011;2808;51.240;6.794;2023-07-29T07:58:28;4.53;;;1.73;;
5569;SDS011;2808;51.240;6.794;2023-07-29T08:01:06;5.10;;;1.80;;
5569;SDS011;2808;51.240;6.794;2023-07-29T08:06:20;3.00;;;1.37;;
5569;SDS011;2808;51.240;6.794;2023-07-29T10:28:17;8.93;;;1.70;;
5569;SDS011;2808;51.240;6.794;2023-07-29T10:31:03;5.20;;;1.40;;
5569;SDS011;2808;51.240;6.794;2023-07-29T10:33:34;4.40;;;1.67;;
5569;SDS011;2808;51.240;6.794;2023-07-29T10:36:05;6.30;;;1.63;;
5569;SDS011;2808;51.240;6.794;2023-07-29T10:38:34;3.47;;;1.50;;
5569;SDS011;2808;51.240;6.794;2023-07-29T10:41:03;7.50;;;1.97;;
5569;SDS011;2808;51.240;6.794;2023-07-29T10:43:33;3.60;;;1.60;;
5569;SDS011;2808;51.240;6.794;2023-07-29T10:46:16;3.83;;;1.73;;
5569;SDS011;2808;51.240;6.794;2023-07-29T10:48:53;4.57;;;1.47;;
5569;SDS011;2808;51.240;6.794;2023-07-29T10:51:26;3.30;;;1.43;;
5569;SDS011;2808;51.240;6.794;2023-07-29T10:54:00;4.53;;;1.60;;
5569;SDS011;2808;51.240;6.794;2023-07-29T10:56:34;4.93;;;1.73;;
5569;SDS011;2808;51.240;6.794;2023-07-29T11:02:11;4.03;;;1.77;;
5569;SDS011;2808;51.240;6.794;2023-07-29T11:04:47;5.93;;;1.60;;
5569;SDS011;2808;51.240;6.794;2023-07-29T11:07:23;5.20;;;1.73;;
5569;SDS011;2808;51.240;6.794;2023-07-29T11:10:05;3.60;;;1.70;;
5569;SDS011;2808;51.240;6.794;2023-07-29T11:12:44;4.73;;;1.67;;
5569;SDS011;2808;51.240;6.794;2023-07-29T11:18:02;5.20;;;1.70;;
5569;SDS011;2808;51.240;6.794;2023-07-29T11:20:49;7.20;;;3.70;;
5569;SDS011;2808;51.240;6.794;2023-07-29T11:23:16;3.23;;;1.53;;
5569;SDS011;2808;51.240;6.794;2023-07-29T11:25:46;3.83;;;1.83;;
5569;SDS011;2808;51.240;6.794;2023-07-29T11:28:15;3.90;;;1.90;;
5569;SDS011;2808;51.240;6.794;2023-07-29T11:33:45;4.70;;;1.60;;
5569;SDS011;2808;51.240;6.794;2023-07-29T11:36:18;3.20;;;1.57;;
5569;SDS011;2808;51.240;6.794;2023-07-29T11:38:46;3.40;;;1.67;;
5569;SDS011;2808;51.240;6.794;2023-07-29T11:41:18;4.60;;;1.87;;
5569;SDS011;2808;51.240;6.794;2023-07-29T11:44:00;4.40;;;1.90;;
5569;SDS011;2808;51.240;6.794;2023-07-29T11:46:35;3.43;;;1.60;;
5569;SDS011;2808;51.240;6.794;2023-07-29T11:49:24;8.73;;;3.80;;
5569;SDS011;2808;51.240;6.794;2023-07-29T11:51:54;4.87;;;3.10;;
5569;SDS011;2808;51.240;6.794;2023-07-29T11:54:26;3.17;;;1.70;;
5569;SDS011;2808;51.240;6.794;2023-07-29T11:56:55;4.57;;;2.20;;
5569;SDS011;2808;51.240;6.794;2023-07-29T11:59:27;4.53;;;2.37;;
5569;SDS011;2808;51.240;6.794;2023-07-29T12:01:57;11.60;;;2.23;;
5569;SDS011;2808;51.240;6.794;2023-07-29T12:04:29;5.10;;;1.97;;
5569;SDS011;2808;51.240;6.794;2023-07-29T12:06:57;6.77;;;2.23;;
5569;SDS011;2808;51.240;6.794;2023-07-29T12:09:25;6.03;;;2.20;;
5569;SDS011;2808;51.240;6.794;2023-07-29T12:11:53;3.93;;;1.90;;
5569;SDS011;2808;51.240;6.794;2023-07-29T12:14:26;4.03;;;1.73;;
5569;SDS011;2808;51.240;6.794;2023-07-29T12:17:04;3.53;;;1.70;;
5569;SDS011;2808;51.240;6.794;2023-07-29T12:19:33;3.60;;;1.90;;
5569;SDS011;2808;51.240;6.794;2023-07-29T12:22:01;3.90;;;1.93;;
5569;SDS011;2808;51.240;6.794;2023-07-29T12:24:30;3.80;;;1.70;;
5569;SDS011;2808;51.240;6.794;2023-07-29T12:27:00;7.27;;;2.00;;
5569;SDS011;2808;51.240;6.794;2023-07-29T12:29:27;5.27;;;2.27;;
5569;SDS011;2808;51.240;6.794;2023-07-29T12:31:58;5.77;;;1.90;;
5569;SDS011;2808;51.240;6.794;2023-07-29T12:34:29;3.90;;;1.67;;
5569;SDS011;2808;51.240;6.794;2023-07-29T12:37:14;3.83;;;1.60;;
5569;SDS011;2808;51.240;6.794;2023-07-29T12:39:42;9.30;;;1.83;;
5569;SDS011;2808;51.240;6.794;2023-07-29T12:42:09;4.70;;;1.80;;
5569;SDS011;2808;51.240;6.794;2023-07-29T12:44:37;6.33;;;1.93;;
5569;SDS011;2808;51.240;6.794;2023-07-29T12:47:06;4.17;;;2.20;;
5569;SDS011;2808;51.240;6.794;2023-07-29T12:49:36;5.73;;;2.10;;
5569;SDS011;2808;51.240;6.794;2023-07-29T12:52:06;5.97;;;1.87;;
5569;SDS011;2808;51.240;6.794;2023-07-29T12:54:34;4.73;;;1.90;;
5569;SDS011;2808;51.240;6.794;2023-07-29T12:57:05;3.13;;;1.57;;
5569;SDS011;2808;51.240;6.794;2023-07-29T12:59:33;4.37;;;1.73;;
5569;SDS011;2808;51.240;6.794;2023-07-29T13:02:01;3.30;;;1.70;;
5569;SDS011;2808;51.240;6.794;2023-07-29T13:04:32;3.70;;;1.83;;
5569;SDS011;2808;51.240;6.794;2023-07-29T13:06:59;3.93;;;1.87;;
5569;SDS011;2808;51.240;6.794;2023-07-29T13:09:30;4.80;;;1.73;;
5569;SDS011;2808;51.240;6.794;2023-07-29T13:11:58;3.90;;;1.90;;
5569;SDS011;2808;51.240;6.794;2023-07-29T13:14:28;4.83;;;2.03;;
5569;SDS011;2808;51.240;6.794;2023-07-29T13:16:55;4.30;;;1.60;;
5569;SDS011;2808;51.240;6.794;2023-07-29T13:19:30;4.10;;;1.93;;
5569;SDS011;2808;51.240;6.794;2023-07-29T13:21:58;3.77;;;1.87;;
5569;SDS011;2808;51.240;6.794;2023-07-29T13:24:27;5.90;;;2.13;;
5569;SDS011;2808;51.240;6.794;2023-07-29T13:26:57;5.43;;;2.10;;
5569;SDS011;2808;51.240;6.794;2023-07-29T13:29:27;5.80;;;2.50;;
5569;SDS011;2808;51.240;6.794;2023-07-29T13:31:55;6.50;;;2.20;;
5569;SDS011;2808;51.240;6.794;2023-07-29T13:34:26;6.50;;;2.07;;
5569;SDS011;2808;51.240;6.794;2023-07-29T13:36:55;4.43;;;1.83;;
5569;SDS011;2808;51.240;6.794;2023-07-29T13:39:22;3.53;;;1.83;;
5569;SDS011;2808;51.240;6.794;2023-07-29T13:41:49;4.70;;;2.23;;
5569;SDS011;2808;51.240;6.794;2023-07-29T13:44:17;3.97;;;2.20;;
5569;SDS011;2808;51.240;6.794;2023-07-29T13:46:44;4.30;;;1.90;;
5569;SDS011;2808;51.240;6.794;2023-07-29T13:49:12;5.03;;;1.97;;
5569;SDS011;2808;51.240;6.794;2023-07-29T13:51:39;3.90;;;2.03;;
5569;SDS011;2808;51.240;6.794;2023-07-29T13:54:09;4.20;;;2.07;;
5569;SDS011;2808;51.240;6.794;2023-07-29T13:56:36;3.90;;;1.80;;
5569;SDS011;2808;51.240;6.794;2023-07-29T13:59:04;4.70;;;2.13;;
5569;SDS011;2808;51.240;6.794;2023-07-29T14:01:31;4.50;;;2.20;;
5569;SDS011;2808;51.240;6.794;2023-07-29T14:03:58;3.90;;;2.00;;
5569;SDS011;2808;51.240;6.794;2023-07-29T14:06:26;4.83;;;2.13;;
5569;SDS011;2808;51.240;6.794;2023-07-29T14:08:56;6.03;;;2.37;;
5569;SDS011;2808;51.240;6.794;2023-07-29T14:11:25;3.90;;;2.10;;
5569;SDS011;2808;51.240;6.794;2023-07-29T14:13:53;4.53;;;2.30;;
5569;SDS011;2808;51.240;6.794;2023-07-29T14:16:22;4.30;;;2.33;;
5569;SDS011;2808;51.240;6.794;2023-07-29T14:18:50;4.60;;;1.90;;
5569;SDS011;2808;51.240;6.794;2023-07-29T14:21:17;4.83;;;2.60;;
5569;SDS011;2808;51.240;6.794;2023-07-29T14:26:25;3.50;;;1.90;;
5569;SDS011;2808;51.240;6.794;2023-07-29T14:28:54;4.13;;;2.13;;
5569;SDS011;2808;51.240;6.794;2023-07-29T14:31:21;5.30;;;2.43;;
5569;SDS011;2808;51.240;6.794;2023-07-29T14:33:49;3.33;;;1.80;;
5569;SDS011;2808;51.240;6.794;2023-07-29T14:36:16;6.60;;;1.90;;
5569;SDS011;2808;51.240;6.794;2023-07-29T14:38:44;4.73;;;2.40;;
5569;SDS011;2808;51.240;6.794;2023-07-29T14:41:12;5.67;;;3.20;;
5569;SDS011;2808;51.240;6.794;2023-07-29T14:43:41;4.10;;;2.00;;
5569;SDS011;2808;51.240;6.794;2023-07-29T14:46:09;7.33;;;2.20;;
5569;SDS011;2808;51.240;6.794;2023-07-29T14:48:36;6.13;;;2.33;;
5569;SDS011;2808;51.240;6.794;2023-07-29T14:51:03;7.00;;;2.13;;
5569;SDS011;2808;51.240;6.794;2023-07-29T14:53:31;6.23;;;2.30;;
5569;SDS011;2808;51.240;6.794;2023-07-29T14:55:58;5.50;;;2.73;;
5569;SDS011;2808;51.240;6.794;2023-07-29T14:58:26;7.70;;;2.37;;
5569;SDS011;2808;51.240;6.794;2023-07-29T15:00:55;8.10;;;2.53;;
5569;SDS011;2808;51.240;6.794;2023-07-29T15:03:25;5.63;;;2.53;;
5569;SDS011;2808;51.240;6.794;2023-07-29T15:05:53;7.03;;;2.20;;
5569;SDS011;2808;51.240;6.794;2023-07-29T15:08:22;7.77;;;1.77;;
5569;SDS011;2808;51.240;6.794;2023-07-29T15:10:50;3.90;;;1.90;;
5569;SDS011;2808;51.240;6.794;2023-07-29T15:13:19;5.10;;;2.00;;
5569;SDS011;2808;51.240;6.794;2023-07-29T15:15:46;4.57;;;2.00;;
5569;SDS011;2808;51.240;6.794;2023-07-29T15:18:17;3.70;;;1.70;;
5569;SDS011;2808;51.240;6.794;2023-07-29T15:20:44;3.30;;;1.60;;
5569;SDS011;2808;51.240;6.794;2023-07-29T15:23:12;3.50;;;1.70;;
5569;SDS011;2808;51.240;6.794;2023-07-29T15:25:39;3.80;;;2.10;;
5569;SDS011;2808;51.240;6.794;2023-07-29T15:28:12;3.73;;;1.60;;
5569;SDS011;2808;51.240;6.794;2023-07-29T15:30:41;3.17;;;1.67;;
5569;SDS011;2808;51.240;6.794;2023-07-29T15:33:09;6.60;;;2.07;;
5569;SDS011;2808;51.240;6.794;2023-07-29T15:35:39;3.80;;;1.60;;
5569;SDS011;2808;51.240;6.794;2023-07-29T15:38:10;4.10;;;1.93;;
5569;SDS011;2808;51.240;6.794;2023-07-29T15:40:38;3.97;;;1.53;;
5569;SDS011;2808;51.240;6.794;2023-07-29T15:43:05;3.33;;;1.53;;
5569;SDS011;2808;51.240;6.794;2023-07-29T15:45:33;4.47;;;1.73;;
5569;SDS011;2808;51.240;6.794;2023-07-29T15:48:01;3.80;;;1.80;;
5569;SDS011;2808;51.240;6.794;2023-07-29T15:50:31;2.73;;;1.50;;
5569;SDS011;2808;51.240;6.794;2023-07-29T15:53:01;4.00;;;1.77;;
5569;SDS011;2808;51.240;6.794;2023-07-29T15:55:29;5.40;;;2.03;;
5569;SDS011;2808;51.240;6.794;2023-07-29T15:57:57;8.03;;;1.90;;
5569;SDS011;2808;51.240;6.794;2023-07-29T16:00:28;3.67;;;2.00;;
5569;SDS011;2808;51.240;6.794;2023-07-29T16:02:56;4.20;;;2.00;;
5569;SDS011;2808;51.240;6.794;2023-07-29T16:05:24;5.30;;;2.10;;
5569;SDS011;2808;51.240;6.794;2023-07-29T16:07:54;3.63;;;1.80;;
5569;SDS011;2808;51.240;6.794;2023-07-29T16:13:08;5.20;;;1.67;;
5569;SDS011;2808;51.240;6.794;2023-07-29T16:15:38;3.50;;;1.77;;
5569;SDS011;2808;51.240;6.794;2023-07-29T16:21:04;4.70;;;1.90;;
5569;SDS011;2808;51.240;6.794;2023-07-29T16:23:36;5.40;;;2.90;;
5569;SDS011;2808;51.240;6.794;2023-07-29T16:26:11;4.87;;;2.27;;
5569;SDS011;2808;51.240;6.794;2023-07-29T16:28:41;3.90;;;1.93;;
5569;SDS011;2808;51.240;6.794;2023-07-29T16:31:09;3.97;;;2.00;;
5569;SDS011;2808;51.240;6.794;2023-07-29T16:33:37;4.27;;;1.93;;
5569;SDS011;2808;51.240;6.794;2023-07-29T16:36:04;4.27;;;2.20;;
5569;SDS011;2808;51.240;6.794;2023-07-29T16:38:32;3.70;;;2.07;;
5569;SDS011;2808;51.240;6.794;2023-07-29T16:40:59;5.93;;;2.00;;
5569;SDS011;2808;51.240;6.794;2023-07-29T16:43:28;4.40;;;1.90;;
5569;SDS011;2808;51.240;6.794;2023-07-29T16:45:56;4.17;;;2.00;;
5569;SDS011;2808;51.240;6.794;2023-07-29T16:48:25;4.90;;;2.10;;
5569;SDS011;2808;51.240;6.794;2023-07-29T16:50:53;6.03;;;2.93;;
5569;SDS011;2808;51.240;6.794;2023-07-29T16:53:20;6.50;;;2.10;;
5569;SDS011;2808;51.240;6.794;2023-07-29T16:55:48;4.40;;;1.87;;
5569;SDS011;2808;51.240;6.794;2023-07-29T16:58:19;3.93;;;1.77;;
5569;SDS011;2808;51.240;6.794;2023-07-29T17:01:21;3.60;;;1.73;;
5569;SDS011;2808;51.240;6.794;2023-07-29T17:03:49;7.17;;;2.10;;
5569;SDS011;2808;51.240;6.794;2023-07-29T17:06:16;4.70;;;2.50;;
5569;SDS011;2808;51.240;6.794;2023-07-29T17:08:44;4.13;;;2.10;;
5569;SDS011;2808;51.240;6.794;2023-07-29T17:11:12;4.23;;;2.20;;
5569;SDS011;2808;51.240;6.794;2023-07-29T17:13:39;4.53;;;2.27;;
5569;SDS011;2808;51.240;6.794;2023-07-29T17:16:09;3.47;;;1.90;;
5569;SDS011;2808;51.240;6.794;2023-07-29T17:18:40;3.20;;;1.80;;
5569;SDS011;2808;51.240;6.794;2023-07-29T17:21:08;3.57;;;1.87;;
5569;SDS011;2808;51.240;6.794;2023-07-29T17:23:42;3.63;;;1.90;;
5569;SDS011;2808;51.240;6.794;2023-07-29T17:26:09;4.67;;;2.37;;
5569;SDS011;2808;51.240;6.794;2023-07-29T17:28:37;5.13;;;2.17;;
5569;SDS011;2808;51.240;6.794;2023-07-29T17:31:04;4.83;;;1.97;;
5569;SDS011;2808;51.240;6.794;2023-07-29T17:33:32;5.20;;;1.80;;
5569;SDS011;2808;51.240;6.794;2023-07-29T17:36:01;7.90;;;2.60;;
5569;SDS011;2808;51.240;6.794;2023-07-29T17:38:29;5.00;;;2.37;;
5569;SDS011;2808;51.240;6.794;2023-07-29T17:40:57;4.83;;;2.33;;
5569;SDS011;2808;51.240;6.794;2023-07-29T17:43:26;5.57;;;2.20;;
5569;SDS011;2808;51.240;6.794;2023-07-29T17:45:54;4.30;;;2.60;;
5569;SDS011;2808;51.240;6.794;2023-07-29T17:48:22;5.57;;;2.70;;
5569;SDS011;2808;51.240;6.794;2023-07-29T17:50:50;5.37;;;2.30;;
5569;SDS011;2808;51.240;6.794;2023-07-29T17:53:47;3.87;;;2.10;;
5569;SDS011;2808;51.240;6.794;2023-07-29T17:56:14;4.80;;;2.47;;
5569;SDS011;2808;51.240;6.794;2023-07-29T17:58:42;4.40;;;2.60;;
5569;SDS011;2808;51.240;6.794;2023-07-29T18:01:10;7.70;;;2.30;;
5569;SDS011;2808;51.240;6.794;2023-07-29T18:03:38;4.83;;;2.60;;
5569;SDS011;2808;51.240;6.794;2023-07-29T18:06:10;6.60;;;1.83;;
5569;SDS011;2808;51.240;6.794;2023-07-29T18:08:38;6.57;;;2.40;;
5569;SDS011;2808;51.240;6.794;2023-07-29T18:11:16;4.50;;;2.30;;
5569;SDS011;2808;51.240;6.794;2023-07-29T18:13:46;5.10;;;2.50;;
5569;SDS011;2808;51.240;6.794;2023-07-29T18:16:16;5.20;;;2.63;;
5569;SDS011;2808;51.240;6.794;2023-07-29T18:19:08;5.27;;;2.53;;
5569;SDS011;2808;51.240;6.794;2023-07-29T18:21:47;5.83;;;2.60;;
5569;SDS011;2808;51.240;6.794;2023-07-29T18:24:44;6.23;;;2.90;;
5569;SDS011;2808;51.240;6.794;2023-07-29T18:27:18;5.40;;;2.47;;
5569;SDS011;2808;51.240;6.794;2023-07-29T18:29:46;5.20;;;2.50;;
5569;SDS011;2808;51.240;6.794;2023-07-29T18:32:13;4.67;;;2.40;;
5569;SDS011;2808;51.240;6.794;2023-07-29T18:34:43;6.37;;;2.20;;
5569;SDS011;2808;51.240;6.794;2023-07-29T18:37:28;5.57;;;3.03;;
5569;SDS011;2808;51.240;6.794;2023-07-29T18:39:59;5.93;;;2.47;;
5569;SDS011;2808;51.240;6.794;2023-07-29T18:45:26;7.97;;;3.20;;
5569;SDS011;2808;51.240;6.794;2023-07-29T18:47:58;7.40;;;2.60;;
5569;SDS011;2808;51.240;6.794;2023-07-29T18:50:30;8.87;;;2.77;;
5569;SDS011;2808;51.240;6.794;2023-07-29T18:53:00;6.70;;;2.80;;
5569;SDS011;2808;51.240;6.794;2023-07-29T18:55:30;8.00;;;2.77;;
5569;SDS011;2808;51.240;6.794;2023-07-29T18:57:58;7.33;;;2.80;;
5569;SDS011;2808;51.240;6.794;2023-07-29T19:00:38;8.40;;;3.33;;
5569;SDS011;2808;51.240;6.794;2023-07-29T19:03:14;6.10;;;2.43;;
5569;SDS011;2808;51.240;6.794;2023-07-29T19:05:49;6.50;;;3.40;;
5569;SDS011;2808;51.240;6.794;2023-07-29T19:08:22;7.27;;;3.40;;
5569;SDS011;2808;51.240;6.794;2023-07-29T19:10:51;8.20;;;4.70;;
5569;SDS011;2808;51.240;6.794;2023-07-29T19:13:22;6.90;;;3.40;;
5569;SDS011;2808;51.240;6.794;2023-07-29T19:15:52;5.80;;;3.00;;
5569;SDS011;2808;51.240;6.794;2023-07-29T19:18:24;7.73;;;2.70;;
5569;SDS011;2808;51.240;6.794;2023-07-29T19:20:53;7.30;;;3.07;;
5569;SDS011;2808;51.240;6.794;2023-07-29T19:23:23;4.50;;;2.57;;
5569;SDS011;2808;51.240;6.794;2023-07-29T19:25:53;8.07;;;2.60;;
5569;SDS011;2808;51.240;6.794;2023-07-29T19:28:21;6.73;;;2.67;;
5569;SDS011;2808;51.240;6.794;2023-07-29T19:30:53;6.70;;;2.13;;
5569;SDS011;2808;51.240;6.794;2023-07-29T19:33:21;7.07;;;2.73;;
5569;SDS011;2808;51.240;6.794;2023-07-29T19:35:53;5.63;;;2.20;;
5569;SDS011;2808;51.240;6.794;2023-07-29T19:38:24;5.03;;;2.50;;
5569;SDS011;2808;51.240;6.794;2023-07-29T19:41:01;4.50;;;2.53;;
5569;SDS011;2808;51.240;6.794;2023-07-29T19:47:04;7.27;;;2.60;;
5569;SDS011;2808;51.240;6.794;2023-07-29T19:49:33;5.63;;;2.80;;
5569;SDS011;2808;51.240;6.794;2023-07-29T19:52:09;6.80;;;2.97;;
5569;SDS011;2808;51.240;6.794;2023-07-29T19:54:46;6.07;;;3.10;;
5569;SDS011;2808;51.240;6.794;2023-07-29T19:57:14;6.77;;;3.47;;
5569;SDS011;2808;51.240;6.794;2023-07-29T19:59:43;5.70;;;2.90;;
5569;SDS011;2808;51.240;6.794;2023-07-29T20:02:16;9.27;;;3.53;;
5569;SDS011;2808;51.240;6.794;2023-07-29T20:04:48;9.27;;;3.30;;
5569;SDS011;2808;51.240;6.794;2023-07-29T20:07:16;6.33;;;3.60;;
5569;SDS011;2808;51.240;6.794;2023-07-29T20:09:49;7.73;;;4.03;;
5569;SDS011;2808;51.240;6.794;2023-07-29T20:12:24;7.60;;;4.07;;
5569;SDS011;2808;51.240;6.794;2023-07-29T20:14:54;8.47;;;4.37;;
5569;SDS011;2808;51.240;6.794;2023-07-29T20:17:29;10.50;;;4.40;;
5569;SDS011;2808;51.240;6.794;2023-07-29T20:19:57;9.70;;;4.47;;
5569;SDS011;2808;51.240;6.794;2023-07-29T20:22:26;7.10;;;3.70;;
5569;SDS011;2808;51.240;6.794;2023-07-29T20:25:02;6.37;;;4.10;;
5569;SDS011;2808;51.240;6.794;2023-07-29T20:27:33;9.20;;;3.53;;
5569;SDS011;2808;51.240;6.794;2023-07-29T20:30:06;6.27;;;3.63;;
5569;SDS011;2808;51.240;6.794;2023-07-29T20:32:42;7.10;;;3.67;;
5569;SDS011;2808;51.240;6.794;2023-07-29T20:35:12;8.20;;;3.73;;
5569;SDS011;2808;51.240;6.794;2023-07-29T20:37:40;9.10;;;3.50;;
5569;SDS011;2808;51.240;6.794;2023-07-29T20:40:08;8.77;;;3.60;;
5569;SDS011;2808;51.240;6.794;2023-07-29T20:42:39;8.40;;;3.80;;
5569;SDS011;2808;51.240;6.794;2023-07-29T20:45:10;8.80;;;3.30;;
5569;SDS011;2808;51.240;6.794;2023-07-29T20:47:37;8.50;;;3.40;;
5569;SDS011;2808;51.240;6.794;2023-07-29T20:50:07;6.20;;;3.63;;
5569;SDS011;2808;51.240;6.794;2023-07-29T20:52:35;11.00;;;4.20;;
5569;SDS011;2808;51.240;6.794;2023-07-29T20:55:05;9.60;;;3.40;;
5569;SDS011;2808;51.240;6.794;2023-07-29T20:57:38;9.43;;;3.90;;
5569;SDS011;2808;51.240;6.794;2023-07-29T21:00:26;12.13;;;4.23;;
5569;SDS011;2808;51.240;6.794;2023-07-29T21:02:59;18.27;;;5.43;;
5569;SDS011;2808;51.240;6.794;2023-07-29T21:05:28;11.53;;;5.60;;
5569;SDS011;2808;51.240;6.794;2023-07-29T21:07:59;9.40;;;5.50;;
5569;SDS011;2808;51.240;6.794;2023-07-29T21:10:30;14.57;;;5.97;;
5569;SDS011;2808;51.240;6.794;2023-07-29T21:12:58;16.87;;;6.10;;
5569;SDS011;2808;51.240;6.794;2023-07-29T21:15:28;8.60;;;5.23;;
5569;SDS011;2808;51.240;6.794;2023-07-29T21:18:07;16.27;;;6.07;;
5569;SDS011;2808;51.240;6.794;2023-07-29T21:20:36;10.20;;;5.03;;
5569;SDS011;2808;51.240;6.794;2023-07-29T21:23:06;9.03;;;4.30;;
5569;SDS011;2808;51.240;6.794;2023-07-29T21:25:34;8.90;;;5.20;;
5569;SDS011;2808;51.240;6.794;2023-07-29T21:28:01;11.20;;;5.10;;
5569;SDS011;2808;51.240;6.794;2023-07-29T21:30:29;9.70;;;4.50;;
5569;SDS011;2808;51.240;6.794;2023-07-29T21:32:56;9.37;;;4.77;;
5569;SDS011;2808;51.240;6.794;2023-07-29T21:35:24;10.27;;;4.40;;
5569;SDS011;2808;51.240;6.794;2023-07-29T21:37:53;12.13;;;4.60;;
5569;SDS011;2808;51.240;6.794;2023-07-29T21:40:21;7.60;;;3.83;;
5569;SDS011;2808;51.240;6.794;2023-07-29T21:42:48;10.17;;;4.60;;
5569;SDS011;2808;51.240;6.794;2023-07-29T21:45:16;12.40;;;3.90;;
5569;SDS011;2808;51.240;6.794;2023-07-29T21:47:43;7.47;;;3.50;;
5569;SDS011;2808;51.240;6.794;2023-07-29T21:50:11;5.90;;;3.10;;
5569;SDS011;2808;51.240;6.794;2023-07-29T21:52:40;7.40;;;2.80;;
5569;SDS011;2808;51.240;6.794;2023-07-29T21:55:11;7.13;;;3.00;;
5569;SDS011;2808;51.240;6.794;2023-07-29T21:57:39;5.13;;;2.97;;
5569;SDS011;2808;51.240;6.794;2023-07-29T22:00:06;5.43;;;2.70;;
5569;SDS011;2808;51.240;6.794;2023-07-29T22:02:34;8.10;;;2.87;;
5569;SDS011;2808;51.240;6.794;2023-07-29T22:05:05;7.30;;;3.00;;
5569;SDS011;2808;51.240;6.794;2023-07-29T22:07:33;6.00;;;2.73;;
5569;SDS011;2808;51.240;6.794;2023-07-29T22:10:00;5.10;;;2.53;;
5569;SDS011;2808;51.240;6.794;2023-07-29T22:12:33;5.93;;;2.93;;
5569;SDS011;2808;51.240;6.794;2023-07-29T22:15:01;5.40;;;2.77;;
5569;SDS011;2808;51.240;6.794;2023-07-29T22:17:32;8.30;;;3.20;;
5569;SDS011;2808;51.240;6.794;2023-07-29T22:20:00;6.07;;;2.83;;
5569;SDS011;2808;51.240;6.794;2023-07-29T22:22:29;4.63;;;2.47;;
5569;SDS011;2808;51.240;6.794;2023-07-29T22:24:56;6.00;;;2.50;;
5569;SDS011;2808;51.240;6.794;2023-07-29T22:27:29;6.50;;;2.67;;
5569;SDS011;2808;51.240;6.794;2023-07-29T22:30:01;6.40;;;2.57;;
5569;SDS011;2808;51.240;6.794;2023-07-29T22:32:32;6.40;;;2.57;;
5569;SDS011;2808;51.240;6.794;2023-07-29T22:35:00;5.60;;;2.97;;
5569;SDS011;2808;51.240;6.794;2023-07-29T22:37:27;5.60;;;2.70;;
5569;SDS011;2808;51.240;6.794;2023-07-29T22:39:58;5.40;;;3.00;;
5569;SDS011;2808;51.240;6.794;2023-07-29T22:42:26;5.50;;;2.43;;
5569;SDS011;2808;51.240;6.794;2023-07-29T22:44:56;5.67;;;2.77;;
5569;SDS011;2808;51.240;6.794;2023-07-29T22:47:24;7.57;;;2.33;;
5569;SDS011;2808;51.240;6.794;2023-07-29T22:49:52;8.67;;;2.90;;
5569;SDS011;2808;51.240;6.794;2023-07-29T22:52:19;7.23;;;2.33;;
5569;SDS011;2808;51.240;6.794;2023-07-29T22:54:47;6.20;;;2.77;;
5569;SDS011;2808;51.240;6.794;2023-07-29T22:57:14;8.20;;;3.20;;
5569;SDS011;2808;51.240;6.794;2023-07-29T22:59:44;7.13;;;3.10;;
5569;SDS011;2808;51.240;6.794;2023-07-29T23:02:12;5.37;;;2.63;;
5569;SDS011;2808;51.240;6.794;2023-07-29T23:04:40;9.40;;;3.10;;
5569;SDS011;2808;51.240;6.794;2023-07-29T23:07:08;5.90;;;2.53;;
5569;SDS011;2808;51.240;6.794;2023-07-29T23:09:35;7.07;;;3.40;;
5569;SDS011;2808;51.240;6.794;2023-07-29T23:12:03;7.30;;;3.03;;
5569;SDS011;2808;51.240;6.794;2023-07-29T23:14:31;9.50;;;3.07;;
5569;SDS011;2808;51.240;6.794;2023-07-29T23:16:58;8.33;;;2.70;;
5569;SDS011;2808;51.240;6.794;2023-07-29T23:19:27;7.00;;;3.37;;
5569;SDS011;2808;51.240;6.794;2023-07-29T23:21:54;9.40;;;3.30;;